Terminal Aerodrome Forecast
Issued by NWS

Home | Current Version | Previous Version | Text Only | Print | Product List | Glossary On
Versions: 1 2 3 4 5 6 7 8 9 10 11 12 13 14 15 16 17 18 19 20 21 22 23 24 25 26 27 28 29 30 31 32 33 34 35 36 37 38 39
000
FTUS43 KGRB 070531
TAFRHI
TAF
KRHI 070531Z 0706/0806 33006KT 3SM FU SCT008 BKN030
      TEMPO 0706/0710 2SM BR BKN008 BKN015
     FM071000 34005KT 5SM FU SCT008
     FM071400 36008KT P6SM SCT025
     FM072300 36005KT P6SM SKC=

USA.gov is the U.S. government's official web portal to all federal, state and local government web resources and services.